Time;durP1;ratioP1;P1;durP2;ratioP2;P2;SDS_P1;SDS_P2;PMS_P1;PMS_P2;Temp;Humidity;BMP_temperature;BMP_pressure;BME280_temperature;BME280_humidity;BME280_pressure;Samples;Min_cycle;Max_cycle;Signal;HPM_P1;HPM_P2
2022/02/26 00:02:41;;;;;;;3.38;2.63;;;;;;;-1.08;91.18;100805.81;8277587;28;20096;-71
2022/02/26 00:06:43;;;;;;;7.87;3.00;;;;;;;-1.10;91.55;100804.84;8281757;28;20248;-71
2022/02/26 00:10:45;;;;;;;7.30;3.10;;;;;;;-1.11;91.63;100818.34;8276960;28;20165;-72
2022/02/26 00:14:46;;;;;;;9.55;3.53;;;;;;;-1.12;91.14;100823.34;8259484;28;20545;-71
2022/02/26 00:18:48;;;;;;;6.43;3.83;;;;;;;-1.20;90.76;100830.53;8278616;28;20062;-71
2022/02/26 00:22:49;;;;;;;8.97;3.30;;;;;;;-1.24;90.44;100823.47;8288831;28;20054;-71
2022/02/26 00:26:51;;;;;;;6.63;2.63;;;;;;;-1.18;91.93;100830.63;8287842;28;20071;-71
2022/02/26 00:30:53;;;;;;;5.15;2.40;;;;;;;-1.25;91.45;100834.44;8283473;28;20089;-71
2022/02/26 00:34:54;;;;;;;8.23;2.70;;;;;;;-1.32;91.39;100830.59;8674040;23;20151;-72
2022/02/26 00:38:56;;;;;;;6.93;2.50;;;;;;;-1.29;91.51;100835.00;8369491;28;20056;-71
2022/02/26 00:42:58;;;;;;;7.03;2.53;;;;;;;-1.29;91.46;100833.34;8381668;28;20465;-71
2022/02/26 00:47:00;;;;;;;6.90;2.35;;;;;;;-1.28;91.26;100834.22;8355472;28;20095;-72
2022/02/26 00:51:01;;;;;;;3.38;2.33;;;;;;;-1.30;91.24;100836.66;8381809;28;20118;-72
2022/02/26 00:55:05;;;;;;;5.87;2.40;;;;;;;-1.35;90.98;100852.44;8367634;28;20143;-71
2022/02/26 00:59:09;;;;;;;5.40;2.70;;;;;;;-1.35;91.28;100862.63;8385114;28;20084;-72
2022/02/26 01:03:10;;;;;;;4.17;2.17;;;;;;;-1.39;91.26;100865.75;8382364;28;20143;-72
2022/02/26 01:07:13;;;;;;;6.93;2.13;;;;;;;-1.46;90.70;100874.63;8376254;28;20098;-72
2022/02/26 01:11:14;;;;;;;6.75;2.70;;;;;;;-1.50;90.72;100875.22;8396643;28;20095;-73
2022/02/26 01:15:16;;;;;;;4.77;2.10;;;;;;;-1.52;91.55;100881.88;8381560;28;20090;-72
2022/02/26 01:19:17;;;;;;;4.00;2.37;;;;;;;-1.51;91.08;100881.09;8386214;28;20061;-72
2022/02/26 01:23:19;;;;;;;4.63;2.03;;;;;;;-1.61;90.56;100878.72;8382642;28;20131;-72
2022/02/26 01:27:20;;;;;;;4.40;2.40;;;;;;;-1.64;90.52;100881.03;8400753;28;20072;-72
2022/02/26 01:31:22;;;;;;;5.57;2.63;;;;;;;-1.67;90.42;100881.72;8380327;28;20412;-72
2022/02/26 01:35:24;;;;;;;5.43;2.80;;;;;;;-1.67;91.18;100873.19;8382842;28;20053;-72
2022/02/26 01:39:26;;;;;;;4.90;1.77;;;;;;;-1.67;91.23;100871.53;8376935;28;20083;-72
2022/02/26 01:43:27;;;;;;;4.60;1.67;;;;;;;-1.72;91.39;100872.00;8373483;28;20048;-72
2022/02/26 01:47:28;;;;;;;3.57;1.60;;;;;;;-1.74;91.21;100873.56;8384402;28;20055;-71
2022/02/26 01:51:30;;;;;;;5.60;1.70;;;;;;;-1.85;89.88;100872.81;8378617;28;20688;-72
2022/02/26 01:55:32;;;;;;;2.10;1.63;;;;;;;-1.90;90.86;100871.63;8384679;28;20111;-72
2022/02/26 01:59:33;;;;;;;3.23;1.87;;;;;;;-1.92;90.33;100868.09;8372501;28;20159;-72
2022/02/26 02:03:35;;;;;;;4.50;2.17;;;;;;;-1.92;90.53;100874.06;8382792;28;20084;-72
2022/02/26 02:07:37;;;;;;;1.77;1.40;;;;;;;-1.94;91.16;100885.81;8374190;28;20056;-72
2022/02/26 02:11:38;;;;;;;4.80;1.92;;;;;;;-1.97;90.66;100880.53;8366911;28;20047;-72
2022/02/26 02:15:41;;;;;;;5.73;1.90;;;;;;;-1.94;90.85;100884.94;8372239;28;20092;-72
2022/02/26 02:19:46;;;;;;;2.70;2.20;;;;;;;-1.98;90.97;100881.28;8381781;28;20060;-72
2022/02/26 02:23:47;;;;;;;3.80;1.97;;;;;;;-1.97;90.41;100890.69;8382566;28;20152;-72
2022/02/26 02:27:49;;;;;;;4.30;2.47;;;;;;;-2.00;89.95;100897.22;8368076;28;20099;-72
2022/02/26 02:31:50;;;;;;;4.83;2.50;;;;;;;-2.01;90.75;100893.78;8381406;28;20056;-72
2022/02/26 02:35:52;;;;;;;4.37;2.53;;;;;;;-2.03;90.26;100895.34;8384999;28;20059;-72
2022/02/26 02:39:53;;;;;;;4.30;1.57;;;;;;;-2.00;90.55;100899.75;8377197;28;20053;-73
2022/02/26 02:43:55;;;;;;;4.17;1.47;;;;;;;-2.01;90.42;100901.41;8382035;28;20159;-72
2022/02/26 02:47:56;;;;;;;6.37;2.10;;;;;;;-1.97;90.94;100900.88;8369435;28;20393;-72
2022/02/26 02:51:58;;;;;;;7.17;2.23;;;;;;;-1.93;90.59;100907.06;8382253;28;20040;-72
2022/02/26 02:56:00;;;;;;;5.37;2.47;;;;;;;-1.91;91.35;100913.13;8384354;28;20389;-72
2022/02/26 03:00:07;;;;;;;5.63;2.83;;;;;;;-1.85;91.43;100909.34;8380549;28;20048;-72
2022/02/26 03:04:09;;;;;;;5.72;2.88;;;;;;;-1.82;91.68;100914.63;8384104;28;20062;-72
2022/02/26 03:08:12;;;;;;;7.18;2.85;;;;;;;-1.76;91.43;100919.28;8375270;28;20063;-72
2022/02/26 03:12:13;;;;;;;4.32;2.50;;;;;;;-1.78;92.29;100917.44;8378288;28;20124;-72
2022/02/26 03:16:16;;;;;;;6.27;2.33;;;;;;;-1.68;92.54;100913.06;8367028;28;20088;-72
2022/02/26 03:20:17;;;;;;;;;;;;;;;-1.60;92.07;100921.22;8388336;28;20076;-72
2022/02/26 03:24:19;;;;;;;6.27;2.27;;;;;;;-1.52;92.61;100928.59;8394278;28;19924;-72
2022/02/26 03:28:20;;;;;;;5.03;2.47;;;;;;;-1.42;92.80;100916.50;8378443;28;20052;-72
2022/02/26 03:32:22;;;;;;;4.70;2.23;;;;;;;-1.45;92.18;100911.19;8389485;28;20520;-72
2022/02/26 03:36:23;;;;;;;5.67;2.50;;;;;;;-1.47;92.46;100918.72;8387610;28;20661;-72
2022/02/26 03:40:26;;;;;;;4.53;2.17;;;;;;;-1.52;91.50;100923.50;8388040;28;20440;-72
2022/02/26 03:44:27;;;;;;;;;;;;;;;-1.54;91.60;100930.16;8388769;28;20044;-72
2022/02/26 03:48:29;;;;;;;4.07;1.50;;;;;;;-1.62;91.55;100935.50;8384356;28;19990;-72
2022/02/26 03:52:31;;;;;;;5.07;1.90;;;;;;;-1.71;91.47;100932.34;8374690;28;20048;-72
2022/02/26 03:56:33;;;;;;;4.83;2.33;;;;;;;-1.73;91.60;100936.44;8388126;28;20388;-72
2022/02/26 04:00:35;;;;;;;4.43;2.13;;;;;;;-1.79;91.55;100941.13;8382582;28;20054;-72
2022/02/26 04:04:37;;;;;;;5.07;2.55;;;;;;;-1.82;91.33;100945.19;8385113;28;20052;-72
2022/02/26 04:08:38;;;;;;;7.10;2.80;;;;;;;-1.87;91.85;100951.63;8383821;28;20083;-72
2022/02/26 04:12:40;;;;;;;3.43;2.40;;;;;;;-1.93;91.12;100952.88;8397802;28;20159;-72
2022/02/26 04:16:42;;;;;;;4.67;2.40;;;;;;;-1.94;91.56;100962.16;8376022;28;20095;-72
2022/02/26 04:20:43;;;;;;;4.23;2.53;;;;;;;-1.89;91.09;100965.03;8380005;28;20535;-72
2022/02/26 04:24:45;;;;;;;6.50;2.90;;;;;;;-1.89;91.69;100970.13;8384185;28;20139;-73
2022/02/26 04:28:46;;;;;;;5.83;2.90;;;;;;;-1.93;90.72;100973.25;8366586;28;20092;-72
2022/02/26 04:32:47;;;;;;;4.63;2.47;;;;;;;-1.88;91.36;100971.88;8364205;28;20064;-72
2022/02/26 04:36:49;;;;;;;3.83;2.57;;;;;;;-1.83;91.00;100979.06;8388772;28;20403;-72
2022/02/26 04:40:51;;;;;;;6.23;2.30;;;;;;;-1.85;91.59;100992.47;8389357;28;20084;-72
2022/02/26 04:44:52;;;;;;;4.47;2.27;;;;;;;-1.78;91.83;100992.13;8375875;28;20136;-72
2022/02/26 04:48:54;;;;;;;4.37;2.13;;;;;;;-1.69;92.00;100992.75;8379370;28;20155;-71
2022/02/26 04:52:55;;;;;;;6.60;2.20;;;;;;;-1.61;92.08;100994.19;8380833;28;20601;-72
2022/02/26 04:56:57;;;;;;;4.33;2.63;;;;;;;-1.58;91.77;100999.50;8388674;28;20135;-72
2022/02/26 05:00:58;;;;;;;6.23;3.17;;;;;;;-1.50;92.09;101004.22;8384652;28;20080;-71
2022/02/26 05:05:00;;;;;;;4.53;3.50;;;;;;;-1.47;91.94;101002.78;8387205;28;20056;-72
2022/02/26 05:09:02;;;;;;;8.43;4.60;;;;;;;-1.37;91.84;101000.09;8374598;28;20147;-72
2022/02/26 05:13:04;;;;;;;6.57;2.93;;;;;;;-1.33;92.54;101004.59;8392237;28;20048;-73
2022/02/26 05:17:05;;;;;;;6.17;2.80;;;;;;;-1.25;92.08;101007.69;8383963;28;20151;-72
2022/02/26 05:21:07;;;;;;;6.43;3.80;;;;;;;-1.26;92.62;101008.44;8387363;28;20059;-71
2022/02/26 05:25:10;;;;;;;4.90;2.57;;;;;;;-1.20;92.52;101003.78;8387803;28;20394;-72
2022/02/26 05:29:12;;;;;;;6.13;2.90;;;;;;;-1.25;91.72;101013.69;8378532;28;20649;-72
2022/02/26 05:33:13;;;;;;;6.93;2.43;;;;;;;-1.23;91.29;101018.88;8383221;28;20140;-72
2022/02/26 05:37:15;;;;;;;4.63;2.90;;;;;;;-1.23;92.03;101013.78;8378711;28;20049;-72
2022/02/26 05:41:16;;;;;;;7.87;2.93;;;;;;;-1.17;91.84;101016.75;8373599;28;20091;-72
2022/02/26 05:45:18;;;;;;;6.30;2.80;;;;;;;-1.14;91.97;101014.41;8384173;28;20350;-73
2022/02/26 05:49:20;;;;;;;7.00;2.50;;;;;;;-1.13;92.54;101021.25;8376815;28;20523;-72
2022/02/26 05:53:22;;;;;;;;;;;;;;;-1.12;91.97;101019.59;8381082;28;20641;-72
2022/02/26 05:57:24;;;;;;;3.40;2.27;;;;;;;-1.19;91.51;101005.56;8391347;28;20396;-72
2022/02/26 06:01:25;;;;;;;4.93;2.33;;;;;;;-1.25;91.84;101011.13;8383600;28;20056;-72
2022/02/26 06:05:27;;;;;;;3.93;2.00;;;;;;;-1.29;91.91;101014.22;8386627;28;20061;-72
2022/02/26 06:09:28;;;;;;;5.23;3.13;;;;;;;-1.32;91.53;101018.22;8385345;28;20044;-72
2022/02/26 06:13:29;;;;;;;4.40;2.17;;;;;;;-1.35;91.38;101008.72;8376583;28;20055;-72
2022/02/26 06:17:31;;;;;;;7.50;2.70;;;;;;;-1.33;91.90;101016.47;8383099;28;20630;-72
2022/02/26 06:21:32;;;;;;;7.47;4.00;;;;;;;-1.30;91.50;101017.56;8385635;28;20099;-72
2022/02/26 06:25:34;;;;;;;11.40;5.37;;;;;;;-1.26;92.11;101016.09;8386681;28;20052;-72
2022/02/26 06:29:36;;;;;;;7.90;3.67;;;;;;;-1.30;91.56;101011.56;8387693;28;20048;-72
2022/02/26 06:33:37;;;;;;;9.03;3.47;;;;;;;-1.27;92.23;101014.31;8383547;28;20040;-72
2022/02/26 06:37:39;;;;;;;10.17;3.23;;;;;;;-1.26;91.81;101006.81;8373935;28;20135;-72
2022/02/26 06:41:41;;;;;;;7.78;3.40;;;;;;;-1.20;91.58;101015.66;8384681;28;20519;-72
2022/02/26 06:45:43;;;;;;;5.97;3.85;;;;;;;-1.22;91.67;101007.91;8385480;28;20068;-72
2022/02/26 06:49:45;;;;;;;4.87;3.13;;;;;;;-1.19;91.09;101019.97;8384551;28;20052;-72
2022/02/26 06:53:46;;;;;;;7.45;3.10;;;;;;;-1.17;91.47;101005.66;8374954;28;20696;-71
2022/02/26 06:57:48;;;;;;;3.97;2.60;;;;;;;-1.10;91.89;101013.81;8385744;28;20519;-71
2022/02/26 07:01:50;;;;;;;6.63;3.20;;;;;;;-1.06;91.95;101015.81;8382568;28;20067;-72
2022/02/26 07:05:51;;;;;;;4.43;3.00;;;;;;;-1.01;91.57;101013.56;8387573;28;20040;-72
2022/02/26 07:09:53;;;;;;;5.03;3.00;;;;;;;-0.96;91.34;101015.63;8386473;28;20523;-71
2022/02/26 07:13:55;;;;;;;5.43;3.53;;;;;;;-0.85;91.63;101021.47;8385148;28;20051;-70
2022/02/26 07:17:56;;;;;;;10.37;4.17;;;;;;;-0.76;91.35;101024.63;8379381;28;20067;-72
2022/02/26 07:21:59;;;;;;;7.13;3.30;;;;;;;-0.73;90.96;101032.47;8383716;28;20064;-70
2022/02/26 07:26:03;;;;;;;7.13;3.07;;;;;;;-0.79;90.74;101032.06;8386459;28;20045;-71
2022/02/26 07:30:07;;;;;;;8.03;3.60;;;;;;;-0.78;91.39;101031.28;8381851;28;20127;-73
2022/02/26 07:34:09;;;;;;;6.87;3.70;;;;;;;-0.66;91.00;101039.75;8385757;28;20045;-74
2022/02/26 07:38:11;;;;;;;8.53;4.30;;;;;;;-0.53;91.58;101045.69;8383667;28;20436;-72
2022/02/26 07:42:12;;;;;;;8.50;4.13;;;;;;;-0.33;91.63;101048.75;8379687;28;20048;-72
2022/02/26 07:46:13;;;;;;;5.53;3.93;;;;;;;-0.07;91.35;101053.00;8382916;28;20323;-72
2022/02/26 07:50:15;;;;;;;5.63;3.33;;;;;;;0.18;90.39;101063.13;8380394;28;20055;-75
2022/02/26 07:54:17;;;;;;;3.45;2.88;;;;;;;0.56;89.89;101074.88;8367426;28;20045;-75
2022/02/26 07:58:20;;;;;;;5.60;2.93;;;;;;;0.91;89.18;101069.38;8382559;28;20087;-75
2022/02/26 08:02:24;;;;;;;4.83;3.57;;;;;;;1.23;88.17;101078.09;8361103;28;20792;-75
2022/02/26 08:06:26;;;;;;;5.53;3.83;;;;;;;1.56;87.91;101072.41;8379494;28;20732;-74
2022/02/26 08:10:28;;;;;;;7.33;4.37;;;;;;;1.91;86.54;101078.69;8381133;28;20052;-72
2022/02/26 08:14:29;;;;;;;6.35;4.53;;;;;;;2.24;86.18;101083.16;8381567;28;20098;-72
2022/02/26 08:18:36;;;;;;;8.40;4.67;;;;;;;2.52;85.09;101082.16;8365083;28;20048;-72
2022/02/26 08:22:38;;;;;;;8.30;4.37;;;;;;;2.82;83.67;101088.91;8381126;28;20053;-73
2022/02/26 08:26:40;;;;;;;7.07;4.20;;;;;;;3.11;83.05;101079.34;8371253;28;20044;-73
2022/02/26 08:30:41;;;;;;;6.67;4.60;;;;;;;3.42;82.38;101090.41;8358455;28;20049;-74
2022/02/26 08:34:43;;;;;;;8.73;4.73;;;;;;;3.75;81.70;101085.19;8362073;28;20053;-75
2022/02/26 08:38:44;;;;;;;8.57;4.93;;;;;;;4.04;81.05;101089.19;8366524;28;20752;-73
2022/02/26 08:42:46;;;;;;;11.90;5.20;;;;;;;4.33;79.95;101093.19;8356048;28;20064;-74
2022/02/26 08:46:48;;;;;;;10.30;5.63;;;;;;;4.55;79.16;101084.00;8355689;28;20064;-74
2022/02/26 08:50:50;;;;;;;11.20;6.67;;;;;;;4.43;78.86;101083.41;8350487;28;20052;-74
2022/02/26 08:54:51;;;;;;;12.93;7.10;;;;;;;4.29;78.93;101087.00;8358508;28;20312;-75
2022/02/26 08:58:54;;;;;;;13.23;6.77;;;;;;;4.25;79.50;101087.66;8353447;28;20079;-74
2022/02/26 09:02:55;;;;;;;15.05;7.85;;;;;;;4.25;79.86;101088.53;8352723;28;20052;-73
2022/02/26 09:06:57;;;;;;;10.60;6.50;;;;;;;4.38;80.21;101094.28;8342458;28;20058;-73
2022/02/26 09:10:59;;;;;;;13.10;6.50;;;;;;;4.44;80.39;101090.31;8342304;28;20059;-73
2022/02/26 09:15:00;;;;;;;10.90;5.90;;;;;;;4.49;79.96;101083.72;8349224;28;20045;-73
2022/02/26 09:19:03;;;;;;;12.37;5.80;;;;;;;4.61;79.73;101082.50;8358419;28;20052;-73
2022/02/26 09:23:05;;;;;;;10.43;5.10;;;;;;;4.80;79.42;101086.00;8364382;28;20140;-74
2022/02/26 09:27:06;;;;;;;11.13;5.63;;;;;;;5.15;79.40;101072.13;8348546;28;20087;-72
2022/02/26 09:31:09;;;;;;;19.33;6.50;;;;;;;5.45;78.99;101079.47;8352313;28;20072;-74
2022/02/26 09:35:11;;;;;;;10.40;5.60;;;;;;;5.80;78.10;101077.50;8364532;28;20048;-73
2022/02/26 09:39:13;;;;;;;14.83;5.47;;;;;;;6.29;77.26;101078.72;8359957;28;20058;-74
2022/02/26 09:43:15;;;;;;;9.32;4.45;;;;;;;6.72;73.89;101084.66;8359661;28;20048;-73
2022/02/26 09:47:16;;;;;;;11.60;4.10;;;;;;;6.93;71.99;101078.59;8364229;28;20516;-74
2022/02/26 09:51:18;;;;;;;8.90;2.63;;;;;;;7.07;69.89;101081.69;8363905;28;20066;-73
2022/02/26 09:55:19;;;;;;;7.47;2.17;;;;;;;7.39;67.30;101076.81;8362798;28;20051;-73
2022/02/26 09:59:21;;;;;;;9.57;2.73;;;;;;;7.62;65.92;101081.09;8361751;28;20052;-73
2022/02/26 10:03:28;;;;;;;18.33;1.70;;;;;;;7.97;63.19;101081.41;8354010;28;20059;-73
2022/02/26 10:07:34;;;;;;;5.80;1.23;;;;;;;8.15;62.18;101075.13;8371378;28;20344;-74
2022/02/26 10:11:37;;;;;;;7.97;1.13;;;;;;;7.96;59.22;101077.94;8353694;28;20441;-75
2022/02/26 10:15:40;;;;;;;;;;;;;;;7.56;57.59;101075.72;8351424;28;20055;-74
2022/02/26 10:19:42;;;;;;;6.90;1.07;;;;;;;7.05;58.64;101069.56;8348694;28;19967;-74
2022/02/26 10:23:44;;;;;;;2.55;1.52;;;;;;;7.04;59.79;101072.97;8356696;28;20048;-73
2022/02/26 10:27:48;;;;;;;5.80;1.17;;;;;;;7.44;61.12;101077.84;8350936;28;20068;-73
2022/02/26 10:31:53;;;;;;;2.53;1.10;;;;;;;7.48;59.72;101070.25;8351455;28;20044;-74
2022/02/26 10:35:58;;;;;;;6.47;0.97;;;;;;;7.41;58.70;101064.84;8335656;28;20090;-73
2022/02/26 10:40:00;;;;;;;4.57;0.90;;;;;;;7.19;58.81;101061.50;8320874;28;20136;-74
2022/02/26 10:44:03;;;;;;;3.87;1.17;;;;;;;7.19;57.49;101065.78;8321492;28;20419;-75
2022/02/26 10:48:05;;;;;;;3.43;1.03;;;;;;;7.63;57.79;101063.88;8322652;28;20092;-73
2022/02/26 10:52:10;;;;;;;3.43;1.07;;;;;;;7.78;55.88;101056.63;8328244;28;20048;-73
2022/02/26 10:56:12;;;;;;;;;;;;;;;8.14;56.76;101046.63;8355684;28;20050;-74
2022/02/26 11:00:14;;;;;;;4.80;0.90;;;;;;;8.36;54.11;101048.19;8335810;28;20539;-74
2022/02/26 11:04:16;;;;;;;3.60;0.87;;;;;;;8.56;53.65;101053.97;8357297;28;20092;-74
2022/02/26 11:08:17;;;;;;;4.37;1.07;;;;;;;8.77;54.57;101041.66;8338504;28;20298;-74
2022/02/26 11:12:24;;;;;;;6.80;1.05;;;;;;;8.77;53.50;101042.53;8355589;28;20144;-75
2022/02/26 11:16:27;;;;;;;3.97;0.90;;;;;;;8.82;52.99;101039.25;8343375;28;20080;-74
2022/02/26 11:20:30;;;;;;;4.55;1.48;;;;;;;8.74;52.11;101033.81;8355899;28;20049;-74
2022/02/26 11:24:32;;;;;;;7.15;2.50;;;;;;;8.65;52.68;101043.91;8362373;28;20145;-74
2022/02/26 11:28:41;;;;;;;9.82;2.35;;;;;;;8.34;51.52;101039.50;8340382;28;20140;-74
2022/02/26 11:32:43;;;;;;;4.35;1.05;;;;;;;7.83;51.82;101034.38;8344361;28;20057;-74
2022/02/26 11:36:49;;;;;;;;;;;;;;;7.62;52.47;101036.25;8379110;28;20059;-73
2022/02/26 11:41:14;;;;;;;5.60;1.60;;;;;;;7.58;52.79;101022.34;8367131;28;20599;-73
2022/02/26 11:45:23;;;;;;;9.27;2.37;;;;;;;7.47;54.10;101016.81;8376075;28;20063;-74
2022/02/26 11:49:27;;;;;;;5.87;1.10;;;;;;;7.76;53.71;101015.22;8378852;28;20079;-74
2022/02/26 11:53:41;;;;;;;3.50;1.73;;;;;;;8.15;52.60;101010.44;8377684;28;20163;-74
2022/02/26 11:57:44;;;;;;;2.60;1.23;;;;;;;8.31;51.17;101004.03;8380893;28;20845;-75
2022/02/26 12:02:18;;;;;;;6.68;1.05;;;;;;;8.52;51.30;100998.66;8372350;28;20056;-74
2022/02/26 12:06:20;;;;;;;3.08;0.70;;;;;;;8.64;49.40;100995.56;8346713;28;20048;-74
2022/02/26 12:10:27;;;;;;;6.72;1.20;;;;;;;8.72;48.66;100987.16;8379843;28;20124;-74
2022/02/26 12:14:31;;;;;;;7.63;1.58;;;;;;;8.88;49.80;100990.19;8378536;28;20045;-74
2022/02/26 12:18:40;;;;;;;4.55;1.42;;;;;;;8.93;47.82;100986.00;8371601;28;20069;-73
2022/02/26 12:22:43;;;;;;;11.13;1.30;;;;;;;8.95;47.14;100971.38;8373582;28;20198;-73
2022/02/26 12:26:57;;;;;;;5.63;1.30;;;;;;;9.22;47.31;100977.31;8378180;28;20063;-73
2022/02/26 12:31:08;;;;;;;4.25;1.20;;;;;;;9.15;46.32;100957.25;8364940;28;20414;-73
2022/02/26 12:35:11;;;;;;;8.30;3.15;;;;;;;9.32;47.70;100963.75;8368221;28;20076;-73
2022/02/26 12:39:12;;;;;;;4.05;0.90;;;;;;;9.53;46.90;100962.56;8379736;28;20084;-73
2022/02/26 12:43:15;;;;;;;2.13;0.82;;;;;;;9.67;44.91;100953.38;8380559;28;20056;-73
2022/02/26 12:47:17;;;;;;;3.05;0.90;;;;;;;9.84;45.98;100953.78;8378975;28;20540;-72
2022/02/26 12:51:19;;;;;;;5.15;0.90;;;;;;;10.08;45.18;100950.91;8379185;28;20131;-73
2022/02/26 12:55:20;;;;;;;3.57;1.50;;;;;;;10.25;44.85;100941.81;8373580;28;20044;-73
2022/02/26 12:59:22;;;;;;;2.20;0.80;;;;;;;10.24;43.34;100938.34;8384588;28;20512;-73
2022/02/26 13:03:24;;;;;;;2.67;0.73;;;;;;;10.38;44.03;100929.94;8374547;28;20049;-72
2022/02/26 13:07:28;;;;;;;3.87;1.00;;;;;;;10.39;44.07;100927.38;8373313;28;20353;-75
2022/02/26 13:11:29;;;;;;;3.33;0.80;;;;;;;10.31;44.23;100936.75;8374054;28;20603;-73
2022/02/26 13:15:32;;;;;;;4.22;1.02;;;;;;;10.30;43.92;100922.00;8369555;28;20048;-73
2022/02/26 13:19:33;;;;;;;4.05;0.70;;;;;;;10.34;43.25;100910.84;8362835;28;20135;-73
2022/02/26 13:23:35;;;;;;;2.40;0.50;;;;;;;10.25;43.01;100905.47;8372366;28;20045;-73
2022/02/26 13:27:37;;;;;;;4.78;0.50;;;;;;;10.22;43.19;100905.38;8371965;28;20451;-73
2022/02/26 13:31:40;;;;;;;6.90;1.00;;;;;;;10.17;42.18;100897.47;8368342;28;20056;-74
2022/02/26 13:35:42;;;;;;;5.10;1.10;;;;;;;10.15;42.44;100893.97;8378092;28;20352;-73
2022/02/26 13:39:45;;;;;;;4.10;0.90;;;;;;;10.07;42.45;100879.97;8376473;28;20718;-74
2022/02/26 13:43:53;;;;;;;3.55;0.85;;;;;;;10.03;42.59;100878.13;8382304;28;20044;-73
2022/02/26 13:47:55;;;;;;;2.67;0.70;;;;;;;10.15;43.18;100885.31;8376680;28;20052;-74
2022/02/26 13:51:56;;;;;;;3.00;0.60;;;;;;;10.06;42.93;100875.63;8366736;28;20052;-73
2022/02/26 13:56:00;;;;;;;3.05;0.68;;;;;;;10.03;43.52;100872.94;8380874;28;20049;-73
2022/02/26 14:00:10;;;;;;;6.65;1.35;;;;;;;9.99;43.12;100864.19;8379336;28;20395;-72
2022/02/26 14:04:22;;;;;;;1.98;0.70;;;;;;;9.71;43.07;100863.59;8381185;28;20076;-73
2022/02/26 14:08:29;;;;;;;3.38;0.60;;;;;;;9.55;43.79;100855.44;8373229;28;20055;-72
2022/02/26 14:12:31;;;;;;;4.72;0.65;;;;;;;9.55;43.12;100855.44;8386095;28;20048;-73
2022/02/26 14:16:32;;;;;;;6.18;0.90;;;;;;;9.57;43.66;100847.69;8366129;28;20058;-74
2022/02/26 14:20:35;;;;;;;4.80;0.87;;;;;;;9.60;43.36;100840.84;8388001;28;20478;-73
2022/02/26 14:24:45;;;;;;;5.57;0.82;;;;;;;9.54;43.87;100850.22;8379202;28;20334;-73
2022/02/26 14:28:48;;;;;;;3.70;0.70;;;;;;;9.16;43.70;100845.00;8379175;28;20123;-74
2022/02/26 14:32:52;;;;;;;3.80;0.80;;;;;;;9.06;44.85;100832.66;8362847;28;20060;-73
2022/02/26 14:36:54;;;;;;;7.28;1.05;;;;;;;9.04;44.55;100829.16;8371663;28;20044;-72
2022/02/26 14:40:55;;;;;;;2.13;1.03;;;;;;;8.92;44.00;100834.00;8379268;28;20719;-73
2022/02/26 14:44:58;;;;;;;3.53;0.95;;;;;;;8.94;43.43;100827.16;8387880;28;20045;-73
2022/02/26 14:49:00;;;;;;;1.83;0.50;;;;;;;9.06;44.39;100824.88;8374746;28;20169;-74
2022/02/26 14:53:07;;;;;;;3.55;0.60;;;;;;;9.20;44.60;100807.97;8379528;28;20080;-73
2022/02/26 14:57:12;;;;;;;4.05;0.60;;;;;;;9.23;43.33;100792.47;8367134;28;20049;-73
2022/02/26 15:01:13;;;;;;;4.88;0.70;;;;;;;9.24;43.86;100799.41;8369105;28;20060;-73
2022/02/26 15:05:15;;;;;;;2.50;0.80;;;;;;;9.30;43.53;100796.94;8393312;28;20044;-72
2022/02/26 15:09:17;;;;;;;3.22;0.77;;;;;;;9.28;43.58;100795.16;8377849;28;20066;-75
2022/02/26 15:13:20;;;;;;;2.97;1.10;;;;;;;9.22;43.54;100790.72;8378430;28;20445;-72
2022/02/26 15:17:22;;;;;;;3.20;0.68;;;;;;;9.21;43.45;100783.78;8360261;28;20502;-74
2022/02/26 15:21:24;;;;;;;3.78;0.70;;;;;;;9.27;44.07;100783.03;8381483;28;20059;-74
2022/02/26 15:25:25;;;;;;;1.63;0.50;;;;;;;9.17;43.33;100771.59;8373754;28;20054;-74
2022/02/26 15:29:27;;;;;;;6.27;0.93;;;;;;;9.18;43.48;100775.94;8372856;28;20048;-74
2022/02/26 15:33:28;;;;;;;1.52;0.70;;;;;;;9.15;44.01;100775.84;8372210;28;20072;-73
2022/02/26 15:37:30;;;;;;;5.17;0.70;;;;;;;9.06;42.50;100779.13;8376685;28;20160;-73
2022/02/26 15:41:35;;;;;;;2.30;0.50;;;;;;;8.79;42.45;100776.72;8377334;28;20597;-73
2022/02/26 15:45:40;;;;;;;2.70;0.60;;;;;;;8.79;43.28;100771.53;8371119;28;20053;-73
2022/02/26 15:49:41;;;;;;;3.55;1.10;;;;;;;8.95;43.17;100769.31;8380262;28;20055;-75
2022/02/26 15:53:44;;;;;;;1.27;0.68;;;;;;;8.99;42.53;100759.09;8379347;28;20059;-73
2022/02/26 15:57:51;;;;;;;3.33;0.70;;;;;;;9.25;42.85;100756.22;8378734;28;20062;-73
2022/02/26 16:01:52;;;;;;;3.42;0.68;;;;;;;9.90;42.06;100749.88;8358105;28;20056;-73
2022/02/26 16:05:54;;;;;;;3.85;0.85;;;;;;;10.50;40.93;100743.22;8378783;28;20824;-73
2022/02/26 16:09:57;;;;;;;2.47;0.60;;;;;;;10.81;40.77;100748.09;8378261;28;20143;-73
2022/02/26 16:13:58;;;;;;;1.88;0.70;;;;;;;10.67;40.22;100744.41;8377790;28;20044;-73
2022/02/26 16:18:00;;;;;;;2.33;0.95;;;;;;;9.80;40.46;100745.31;8377387;28;20958;-73
2022/02/26 16:22:02;;;;;;;4.78;1.13;;;;;;;9.19;42.89;100744.00;8375251;28;20160;-74
2022/02/26 16:26:05;;;;;;;6.07;1.33;;;;;;;8.77;44.28;100749.03;8363660;28;20053;-73
2022/02/26 16:30:09;;;;;;;3.25;1.25;;;;;;;8.42;45.38;100748.13;8373165;28;20048;-75
2022/02/26 16:34:11;;;;;;;5.38;1.48;;;;;;;8.08;45.68;100742.06;8370254;28;20131;-73
2022/02/26 16:38:12;;;;;;;7.33;1.77;;;;;;;7.82;46.28;100738.72;8376987;28;20139;-72
2022/02/26 16:42:14;;;;;;;3.63;1.03;;;;;;;7.59;47.68;100739.78;8376914;28;20670;-73
2022/02/26 16:46:15;;;;;;;4.77;1.57;;;;;;;7.34;48.70;100745.03;8373742;28;20159;-73
2022/02/26 16:50:17;;;;;;;4.77;1.90;;;;;;;7.14;48.71;100745.31;8376867;28;20716;-73
2022/02/26 16:54:19;;;;;;;4.17;1.23;;;;;;;6.97;49.24;100754.22;8375832;28;20721;-74
2022/02/26 16:58:20;;;;;;;2.25;1.20;;;;;;;6.79;49.81;100751.06;8376171;28;20139;-76
2022/02/26 17:02:22;;;;;;;7.67;2.50;;;;;;;6.65;50.37;100753.22;8374642;28;20430;-73
2022/02/26 17:06:28;;;;;;;6.60;3.07;;;;;;;6.48;50.06;100750.06;8378088;28;20050;-74
2022/02/26 17:10:30;;;;;;;3.42;1.58;;;;;;;6.33;50.72;100753.00;8373502;28;20060;-75
2022/02/26 17:14:32;;;;;;;4.03;1.10;;;;;;;6.19;51.69;100764.53;8378711;28;20051;-73
2022/02/26 17:18:38;;;;;;;5.33;1.40;;;;;;;5.98;52.64;100766.34;8368400;28;20052;-72
2022/02/26 17:22:39;;;;;;;4.87;1.23;;;;;;;5.79;53.85;100761.31;8370774;28;20135;-72
2022/02/26 17:26:41;;;;;;;5.03;1.80;;;;;;;5.60;54.32;100764.91;8382886;28;20062;-74
2022/02/26 17:30:43;;;;;;;6.97;2.33;;;;;;;5.43;54.71;100766.84;8381146;28;20080;-72
2022/02/26 17:34:46;;;;;;;6.20;2.00;;;;;;;5.27;55.96;100773.09;8383433;28;20160;-73
2022/02/26 17:38:48;;;;;;;6.20;1.90;;;;;;;5.15;55.61;100772.59;8365652;28;20052;-72
2022/02/26 17:42:50;;;;;;;3.00;1.30;;;;;;;5.06;55.39;100780.84;8364730;28;20159;-73
2022/02/26 17:46:52;;;;;;;7.07;1.77;;;;;;;5.01;55.00;100779.78;8379930;28;20052;-72
2022/02/26 17:50:55;;;;;;;3.72;1.52;;;;;;;4.94;56.92;100787.19;8377920;28;20470;-73
2022/02/26 17:54:59;;;;;;;4.37;1.47;;;;;;;4.82;56.97;100787.56;8376207;28;20059;-74
2022/02/26 17:59:00;;;;;;;5.87;2.10;;;;;;;4.79;56.22;100787.44;8380049;28;20913;-74
2022/02/26 18:03:02;;;;;;;5.87;1.47;;;;;;;4.76;56.14;100782.19;8359712;28;20056;-75
2022/02/26 18:07:04;;;;;;;4.70;1.33;;;;;;;4.72;56.21;100782.88;8380251;28;20367;-74
2022/02/26 18:11:05;;;;;;;5.83;1.20;;;;;;;4.68;56.44;100781.00;8382930;28;20082;-74
2022/02/26 18:15:10;;;;;;;4.37;1.23;;;;;;;4.62;56.92;100789.31;8367703;28;20051;-73
2022/02/26 18:19:12;;;;;;;6.03;1.30;;;;;;;4.54;56.73;100785.56;8379578;28;20056;-73
2022/02/26 18:23:14;;;;;;;5.60;1.55;;;;;;;4.52;57.28;100780.34;8376360;28;20088;-73
2022/02/26 18:27:16;;;;;;;2.95;1.13;;;;;;;4.46;58.04;100785.22;8379535;28;20739;-73
2022/02/26 18:31:18;;;;;;;9.33;2.90;;;;;;;4.37;58.21;100784.84;8375416;28;20071;-72
2022/02/26 18:35:20;;;;;;;4.30;1.30;;;;;;;4.30;58.03;100787.94;8390888;28;20127;-73
2022/02/26 18:39:21;;;;;;;2.87;1.47;;;;;;;4.25;58.44;100794.59;8386971;28;20048;-74
2022/02/26 18:43:23;;;;;;;4.90;1.97;;;;;;;4.19;58.58;100787.50;8400564;28;20304;-76
2022/02/26 18:47:25;;;;;;;7.90;3.30;;;;;;;4.12;59.09;100793.16;8396116;28;20056;-75
2022/02/26 18:51:26;;;;;;;7.63;1.73;;;;;;;4.07;59.13;100789.53;8373134;28;20622;-73
2022/02/26 18:55:29;;;;;;;5.67;1.90;;;;;;;4.00;59.52;100789.19;8370690;28;20067;-73